sensor_id;sensor_type;location;lat;lon;timestamp;P1;durP1;ratioP1;P2;durP2;ratioP2
52102;SDS011;38101;53.126;6.878;2024-03-02T17:56:33;6.43;;;3.95;;
52102;SDS011;38101;53.126;6.878;2024-03-02T17:58:59;6.30;;;3.78;;
52102;SDS011;38101;53.126;6.878;2024-03-02T18:01:24;5.93;;;4.20;;
52102;SDS011;38101;53.126;6.878;2024-03-02T18:03:50;5.93;;;3.80;;
52102;SDS011;38101;53.126;6.878;2024-03-02T18:06:15;6.35;;;3.78;;
52102;SDS011;38101;53.126;6.878;2024-03-02T18:08:41;5.10;;;3.67;;
52102;SDS011;38101;53.126;6.878;2024-03-02T18:11:07;6.45;;;4.40;;
52102;SDS011;38101;53.126;6.878;2024-03-02T18:13:32;7.65;;;4.47;;
52102;SDS011;38101;53.126;6.878;2024-03-02T18:16:01;5.85;;;4.47;;
52102;SDS011;38101;53.126;6.878;2024-03-02T18:18:27;5.38;;;4.07;;
52102;SDS011;38101;53.126;6.878;2024-03-02T18:20:53;7.53;;;4.03;;
52102;SDS011;38101;53.126;6.878;2024-03-02T18:23:19;7.03;;;4.18;;
52102;SDS011;38101;53.126;6.878;2024-03-02T18:25:44;5.50;;;4.30;;
52102;SDS011;38101;53.126;6.878;2024-03-02T18:28:13;5.63;;;4.18;;
52102;SDS011;38101;53.126;6.878;2024-03-02T18:30:39;7.13;;;4.25;;
52102;SDS011;38101;53.126;6.878;2024-03-02T18:33:06;4.65;;;3.55;;
52102;SDS011;38101;53.126;6.878;2024-03-02T18:35:32;5.57;;;3.90;;
52102;SDS011;38101;53.126;6.878;2024-03-02T18:37:58;5.63;;;3.90;;
52102;SDS011;38101;53.126;6.878;2024-03-02T18:40:24;5.85;;;3.78;;
52102;SDS011;38101;53.126;6.878;2024-03-02T18:42:50;5.82;;;3.88;;
52102;SDS011;38101;53.126;6.878;2024-03-02T18:45:15;5.30;;;3.90;;
52102;SDS011;38101;53.126;6.878;2024-03-02T18:47:43;5.60;;;4.07;;
52102;SDS011;38101;53.126;6.878;2024-03-02T18:50:09;5.35;;;4.18;;
52102;SDS011;38101;53.126;6.878;2024-03-02T18:52:35;6.28;;;4.43;;
52102;SDS011;38101;53.126;6.878;2024-03-02T18:55:02;7.07;;;4.57;;
52102;SDS011;38101;53.126;6.878;2024-03-02T18:57:29;7.45;;;4.65;;
52102;SDS011;38101;53.126;6.878;2024-03-02T18:59:55;6.53;;;4.78;;
52102;SDS011;38101;53.126;6.878;2024-03-02T19:02:21;5.90;;;4.47;;
52102;SDS011;38101;53.126;6.878;2024-03-02T19:04:46;5.30;;;4.18;;
52102;SDS011;38101;53.126;6.878;2024-03-02T19:07:12;7.28;;;5.03;;
52102;SDS011;38101;53.126;6.878;2024-03-02T19:09:38;6.70;;;4.82;;
52102;SDS011;38101;53.126;6.878;2024-03-02T19:12:05;7.85;;;4.90;;
52102;SDS011;38101;53.126;6.878;2024-03-02T19:14:31;7.95;;;5.22;;
52102;SDS011;38101;53.126;6.878;2024-03-02T19:16:57;6.30;;;4.30;;
52102;SDS011;38101;53.126;6.878;2024-03-02T19:19:23;6.78;;;5.05;;
52102;SDS011;38101;53.126;6.878;2024-03-02T19:21:49;7.05;;;4.60;;
52102;SDS011;38101;53.126;6.878;2024-03-02T19:24:14;7.30;;;5.10;;
52102;SDS011;38101;53.126;6.878;2024-03-02T19:26:40;7.47;;;5.22;;
52102;SDS011;38101;53.126;6.878;2024-03-02T19:29:06;7.35;;;4.72;;
52102;SDS011;38101;53.126;6.878;2024-03-02T19:31:32;6.32;;;4.93;;
52102;SDS011;38101;53.126;6.878;2024-03-02T19:33:58;6.55;;;5.32;;
52102;SDS011;38101;53.126;6.878;2024-03-02T19:36:23;5.90;;;4.80;;
52102;SDS011;38101;53.126;6.878;2024-03-02T19:38:50;7.18;;;5.07;;
52102;SDS011;38101;53.126;6.878;2024-03-02T19:41:16;7.25;;;5.43;;
52102;SDS011;38101;53.126;6.878;2024-03-02T19:43:42;8.50;;;5.60;;
52102;SDS011;38101;53.126;6.878;2024-03-02T19:46:10;7.03;;;5.70;;
52102;SDS011;38101;53.126;6.878;2024-03-02T19:48:36;8.32;;;5.85;;
52102;SDS011;38101;53.126;6.878;2024-03-02T19:51:01;8.32;;;6.03;;
52102;SDS011;38101;53.126;6.878;2024-03-02T19:53:27;8.25;;;5.90;;
52102;SDS011;38101;53.126;6.878;2024-03-02T19:55:53;7.18;;;6.13;;
52102;SDS011;38101;53.126;6.878;2024-03-02T19:58:19;6.65;;;5.63;;
52102;SDS011;38101;53.126;6.878;2024-03-02T20:00:45;7.65;;;5.80;;
52102;SDS011;38101;53.126;6.878;2024-03-02T20:03:10;7.20;;;5.85;;
52102;SDS011;38101;53.126;6.878;2024-03-02T20:05:36;8.82;;;6.35;;
52102;SDS011;38101;53.126;6.878;2024-03-02T20:08:03;8.18;;;5.80;;
52102;SDS011;38101;53.126;6.878;2024-03-02T20:10:30;8.20;;;6.30;;
52102;SDS011;38101;53.126;6.878;2024-03-02T20:12:56;8.38;;;6.47;;
52102;SDS011;38101;53.126;6.878;2024-03-02T20:15:22;7.70;;;6.28;;
52102;SDS011;38101;53.126;6.878;2024-03-02T20:17:49;8.88;;;6.10;;
52102;SDS011;38101;53.126;6.878;2024-03-02T20:20:15;7.57;;;5.80;;
52102;SDS011;38101;53.126;6.878;2024-03-02T20:22:41;7.78;;;5.72;;
52102;SDS011;38101;53.126;6.878;2024-03-02T20:25:08;7.13;;;5.30;;
52102;SDS011;38101;53.126;6.878;2024-03-02T20:27:36;7.43;;;5.80;;
52102;SDS011;38101;53.126;6.878;2024-03-02T20:30:02;7.68;;;5.43;;
52102;SDS011;38101;53.126;6.878;2024-03-02T20:32:31;7.90;;;6.32;;
52102;SDS011;38101;53.126;6.878;2024-03-02T20:34:57;6.97;;;5.13;;
52102;SDS011;38101;53.126;6.878;2024-03-02T20:37:23;6.75;;;5.40;;
